createdAt,value
2019-04-29T00:02:28.892Z,42.30
2019-04-29T00:04:57.624Z,42.80
2019-04-29T00:07:26.461Z,42.70
2019-04-29T00:09:55.201Z,42.60
2019-04-29T00:12:24.002Z,42.40
2019-04-29T00:14:56.750Z,42.40
2019-04-29T00:17:27.120Z,42.70
2019-04-29T00:19:59.925Z,42.80
2019-04-29T00:22:28.825Z,42.40
2019-04-29T00:24:57.495Z,42.70
2019-04-29T00:27:26.156Z,42.80
2019-04-29T00:29:54.896Z,43.40
2019-04-29T00:32:23.628Z,42.90
2019-04-29T00:34:52.301Z,43.40
2019-04-29T00:37:38.590Z,43.50
2019-04-29T00:40:09.065Z,43.40
2019-04-29T00:42:42.359Z,43.50
2019-04-29T00:45:11.114Z,43.10
2019-04-29T00:47:39.787Z,43.20
2019-04-29T00:50:08.597Z,43.50
2019-04-29T00:52:37.337Z,43.60
2019-04-29T00:55:13.785Z,43.50
2019-04-29T00:57:42.520Z,43.50
2019-04-29T01:00:13.193Z,43.70
2019-04-29T01:02:42.036Z,43.70
2019-04-29T01:05:10.869Z,43.70
2019-04-29T01:07:39.536Z,44.10
2019-04-29T01:10:08.572Z,43.60
2019-04-29T01:12:37.519Z,43.90
2019-04-29T01:15:06.850Z,44.10
2019-04-29T01:17:35.589Z,44.10
2019-04-29T01:20:06.425Z,44.50
2019-04-29T01:22:35.166Z,44.20
2019-04-29T01:25:05.165Z,44.50
2019-04-29T01:27:35.540Z,44.50
2019-04-29T01:30:06.145Z,44.50
2019-04-29T01:32:36.762Z,44.60
2019-04-29T01:35:06.968Z,44.40
2019-04-29T01:37:40.316Z,44.40
2019-04-29T01:40:27.100Z,44.60
2019-04-29T01:42:55.773Z,44.70
2019-04-29T01:45:24.498Z,45.10
2019-04-29T01:47:53.239Z,45.00
2019-04-29T01:50:21.904Z,44.70
2019-04-29T01:52:50.576Z,44.90
2019-04-29T01:55:19.251Z,44.70
2019-04-29T01:57:47.986Z,45.10
2019-04-29T02:00:17.898Z,45.00
2019-04-29T02:02:46.629Z,44.90
2019-04-29T02:05:15.296Z,45.10
2019-04-29T02:07:44.037Z,44.60
2019-04-29T02:10:17.213Z,45.00
2019-04-29T02:12:45.878Z,45.00
2019-04-29T02:15:14.784Z,45.30
2019-04-29T02:17:43.524Z,44.70
2019-04-29T02:20:12.356Z,44.80
2019-04-29T02:22:42.734Z,45.20
2019-04-29T02:25:13.109Z,45.10
2019-04-29T02:27:41.859Z,45.20
2019-04-29T02:30:11.357Z,45.30
2019-04-29T02:32:40.092Z,45.70
2019-04-29T02:35:08.761Z,45.70
2019-04-29T02:37:39.061Z,45.80
2019-04-29T02:40:09.447Z,45.80
2019-04-29T02:42:46.457Z,45.40
2019-04-29T02:45:17.484Z,45.80
2019-04-29T02:47:45.297Z,46.00
2019-04-29T02:50:14.395Z,46.30
2019-04-29T02:52:43.061Z,46.30
2019-04-29T02:55:14.033Z,46.20
2019-04-29T02:57:43.564Z,46.20
2019-04-29T03:00:26.134Z,46.10
2019-04-29T03:03:08.245Z,46.60
2019-04-29T03:05:41.700Z,46.60
2019-04-29T03:08:10.437Z,46.40
2019-04-29T03:10:39.170Z,46.40
2019-04-29T03:13:07.847Z,46.70
2019-04-29T03:15:39.506Z,46.80
2019-04-29T03:18:08.246Z,46.90
2019-04-29T03:20:50.482Z,46.70
2019-04-29T03:23:20.851Z,46.60
2019-04-29T03:25:49.585Z,46.50
2019-04-29T03:28:18.209Z,46.50
2019-04-29T03:30:46.927Z,46.50
2019-04-29T03:33:15.677Z,46.60
2019-04-29T03:35:44.404Z,46.70
2019-04-29T03:38:13.108Z,46.40
2019-04-29T03:40:41.830Z,47.00
2019-04-29T03:43:10.549Z,47.00
2019-04-29T03:45:39.293Z,46.70
2019-04-29T03:48:07.982Z,46.70
2019-04-29T03:50:36.707Z,46.70
2019-04-29T03:53:05.379Z,46.90
2019-04-29T03:55:40.107Z,46.70
2019-04-29T03:58:04.420Z,46.40
2019-04-29T04:00:33.340Z,46.30
2019-04-29T04:03:09.069Z,46.60
2019-04-29T04:05:51.222Z,46.70
2019-04-29T04:08:30.054Z,46.90
2019-04-29T04:10:58.793Z,46.60
2019-04-29T04:13:27.398Z,46.60
2019-04-29T04:15:56.131Z,46.70
2019-04-29T04:18:29.349Z,46.80
2019-04-29T04:20:58.077Z,46.30
2019-04-29T04:23:26.666Z,47.00
2019-04-29T04:25:55.409Z,46.40
2019-04-29T04:28:24.074Z,46.20
2019-04-29T04:30:52.808Z,46.40
2019-04-29T04:33:21.411Z,46.50
2019-04-29T04:35:50.145Z,45.90
2019-04-29T04:38:18.809Z,45.50
2019-04-29T04:40:49.188Z,46.00
2019-04-29T04:43:17.789Z,45.20
2019-04-29T04:45:46.525Z,45.20
2019-04-29T04:48:15.129Z,45.50
2019-04-29T04:50:43.870Z,45.90
2019-04-29T04:53:12.546Z,44.90
2019-04-29T04:55:42.916Z,45.10
2019-04-29T04:58:11.588Z,45.30
2019-04-29T05:00:40.394Z,45.00
2019-04-29T05:03:09.010Z,44.30
2019-04-29T05:05:37.673Z,45.00
2019-04-29T05:08:06.264Z,44.00
2019-04-29T05:10:34.937Z,43.00
2019-04-29T05:13:03.626Z,42.10
2019-04-29T05:15:32.365Z,41.30
2019-04-29T05:18:00.972Z,40.60
2019-04-29T05:20:29.732Z,40.80
2019-04-29T05:23:01.089Z,40.70
2019-04-29T05:25:31.250Z,40.50
2019-04-29T05:28:00.293Z,39.70
2019-04-29T05:30:29.144Z,39.00
2019-04-29T05:32:57.885Z,38.90
2019-04-29T05:35:31.269Z,38.70
2019-04-29T05:38:04.514Z,38.70
2019-04-29T05:40:46.809Z,38.30
2019-04-29T05:43:17.208Z,37.90
2019-04-29T05:45:50.425Z,37.10
2019-04-29T05:48:20.337Z,38.60
2019-04-29T05:50:52.203Z,36.80
2019-04-29T05:53:22.752Z,36.70
2019-04-29T05:55:52.631Z,35.90
2019-04-29T05:58:21.441Z,35.80
2019-04-29T06:00:51.688Z,36.30
2019-04-29T06:03:20.496Z,36.90
2019-04-29T06:05:49.039Z,37.80
2019-04-29T06:08:17.716Z,37.10
2019-04-29T06:10:46.389Z,37.00
2019-04-29T06:13:15.153Z,36.00
2019-04-29T06:15:43.753Z,36.70
2019-04-29T06:18:12.497Z,35.90
2019-04-29T06:20:41.162Z,36.20
2019-04-29T06:23:09.852Z,35.90
2019-04-29T06:25:38.455Z,35.00
2019-04-29T06:28:07.202Z,34.90
2019-04-29T06:30:38.720Z,35.50
2019-04-29T06:33:06.329Z,35.70
2019-04-29T06:35:34.992Z,36.10
2019-04-29T06:38:03.751Z,36.00
2019-04-29T06:40:35.411Z,37.40
2019-04-29T06:43:02.736Z,37.00
2019-04-29T06:45:31.423Z,34.70
2019-04-29T06:48:00.166Z,34.30
2019-04-29T06:50:28.884Z,33.80
2019-04-29T06:52:57.629Z,34.10
2019-04-29T06:55:26.301Z,33.50
2019-04-29T06:57:55.045Z,34.00
2019-04-29T07:00:24.036Z,32.90
2019-04-29T07:02:52.658Z,33.10
2019-04-29T07:05:21.406Z,32.30
2019-04-29T07:07:50.005Z,32.20
2019-04-29T07:10:21.804Z,33.00
2019-04-29T07:12:49.002Z,32.70
2019-04-29T07:15:17.740Z,31.40
2019-04-29T07:17:46.430Z,30.20
2019-04-29T07:20:15.373Z,30.00
2019-04-29T07:22:44.048Z,31.40
2019-04-29T07:25:12.888Z,31.50
2019-04-29T07:27:44.199Z,31.60
2019-04-29T07:30:12.084Z,31.70
2019-04-29T07:32:41.980Z,32.50
2019-04-29T07:35:11.534Z,32.90
2019-04-29T07:37:40.238Z,32.50
2019-04-29T07:40:09.465Z,32.70
2019-04-29T07:42:38.251Z,33.60
2019-04-29T07:45:18.001Z,34.80
2019-04-29T07:47:56.212Z,35.00
2019-04-29T07:50:22.307Z,34.30
2019-04-29T07:52:49.982Z,34.00
2019-04-29T07:55:19.333Z,34.00
2019-04-29T07:57:52.199Z,34.30
2019-04-29T08:00:22.085Z,34.40
2019-04-29T08:02:50.924Z,35.40
2019-04-29T08:05:19.669Z,35.20
2019-04-29T08:07:48.585Z,34.30
2019-04-29T08:10:23.524Z,34.60
2019-04-29T08:12:50.028Z,34.40
2019-04-29T08:15:18.768Z,33.90
2019-04-29T08:17:47.372Z,34.10
2019-04-29T08:20:17.721Z,33.30
2019-04-29T08:22:46.473Z,33.10
2019-04-29T08:25:15.208Z,32.40
2019-04-29T08:27:44.032Z,32.40
2019-04-29T08:30:12.869Z,33.10
2019-04-29T08:32:41.606Z,32.20
2019-04-29T08:35:10.363Z,31.70
2019-04-29T08:37:39.105Z,31.80
2019-04-29T08:40:15.982Z,31.80
2019-04-29T08:42:46.884Z,31.70
2019-04-29T08:45:34.723Z,31.50
2019-04-29T08:48:02.992Z,32.20
2019-04-29T08:50:31.669Z,31.90
2019-04-29T08:53:00.265Z,31.90
2019-04-29T08:55:30.984Z,32.10
2019-04-29T08:57:59.252Z,32.20
2019-04-29T09:00:28.073Z,31.70
2019-04-29T09:02:56.749Z,31.40
2019-04-29T09:05:25.421Z,30.90
2019-04-29T09:07:57.294Z,30.80
2019-04-29T09:10:24.445Z,30.20
2019-04-29T09:12:53.189Z,29.80
2019-04-29T09:15:21.934Z,29.70
2019-04-29T09:17:50.676Z,29.80
2019-04-29T09:20:19.518Z,29.90
2019-04-29T09:22:49.897Z,29.60
2019-04-29T09:25:26.247Z,29.40
2019-04-29T09:27:56.769Z,29.60
2019-04-29T09:30:25.508Z,30.10
2019-04-29T09:32:54.186Z,29.60
2019-04-29T09:35:22.924Z,29.30
2019-04-29T09:37:53.835Z,29.20
2019-04-29T09:40:23.614Z,29.10
2019-04-29T09:43:14.853Z,28.90
2019-04-29T09:45:34.941Z,27.90
2019-04-29T09:48:03.684Z,27.80
2019-04-29T09:50:34.236Z,28.00
2019-04-29T09:53:02.740Z,29.00
2019-04-29T09:55:31.485Z,28.70
2019-04-29T09:58:00.224Z,29.20
2019-04-29T10:00:40.847Z,29.30
2019-04-29T10:03:08.616Z,29.30
2019-04-29T10:05:41.353Z,29.10
2019-04-29T10:08:10.092Z,28.80
2019-04-29T10:10:38.837Z,28.30
2019-04-29T10:13:07.772Z,28.00
2019-04-29T10:15:38.161Z,28.40
2019-04-29T10:18:08.532Z,28.10
2019-04-29T10:20:41.842Z,28.20
2019-04-29T10:23:10.508Z,27.70
2019-04-29T10:25:39.190Z,27.80
2019-04-29T10:28:08.033Z,28.10
2019-04-29T10:30:36.780Z,28.40
2019-04-29T10:33:05.533Z,27.90
2019-04-29T10:35:34.273Z,28.80
2019-04-29T10:38:04.124Z,26.50
2019-04-29T10:40:40.096Z,26.60
2019-04-29T10:43:17.193Z,26.60
2019-04-29T10:45:59.769Z,27.00
2019-04-29T10:48:44.661Z,27.10
2019-04-29T10:51:15.081Z,26.60
2019-04-29T10:53:46.647Z,26.70
2019-04-29T10:56:14.504Z,26.90
2019-04-29T10:58:43.556Z,27.10
2019-04-29T11:01:29.171Z,27.60
2019-04-29T11:04:00.850Z,27.00
2019-04-29T11:06:26.778Z,26.80
2019-04-29T11:08:57.164Z,27.20
2019-04-29T11:11:27.656Z,26.90
2019-04-29T11:13:57.655Z,26.40
2019-04-29T11:16:29.498Z,26.10
2019-04-29T11:19:00.234Z,26.60
2019-04-29T11:21:29.547Z,26.40
2019-04-29T11:24:05.433Z,27.10
2019-04-29T11:26:35.813Z,27.10
2019-04-29T11:29:06.279Z,26.70
2019-04-29T11:31:36.410Z,26.40
2019-04-29T11:34:21.984Z,25.70
2019-04-29T11:36:50.656Z,25.30
2019-04-29T11:39:19.456Z,25.80
2019-04-29T11:41:50.048Z,25.90
2019-04-29T11:44:21.878Z,25.80
2019-04-29T11:46:50.597Z,25.80
2019-04-29T11:49:21.021Z,25.80
2019-04-29T11:52:08.403Z,25.70
2019-04-29T11:54:20.153Z,25.20
2019-04-29T11:56:48.901Z,25.60
2019-04-29T11:59:19.293Z,27.50
2019-04-29T12:01:51.698Z,29.80
2019-04-29T12:04:21.670Z,30.00
2019-04-29T12:06:51.348Z,29.80
2019-04-29T12:09:21.002Z,29.80
2019-04-29T12:11:49.698Z,29.50
2019-04-29T12:14:28.659Z,29.50
2019-04-29T12:17:14.844Z,30.50
2019-04-29T12:19:45.217Z,29.70
2019-04-29T12:22:26.871Z,29.80
2019-04-29T12:24:44.147Z,30.10
2019-04-29T12:27:14.795Z,30.10
2019-04-29T12:29:43.002Z,29.90
2019-04-29T12:32:15.989Z,30.20
2019-04-29T12:35:02.084Z,29.80
2019-04-29T12:37:38.241Z,29.70
2019-04-29T12:40:18.717Z,30.10
2019-04-29T12:43:05.133Z,30.50
2019-04-29T12:45:38.273Z,30.90
2019-04-29T12:48:07.027Z,31.60
2019-04-29T12:50:35.692Z,31.30
2019-04-29T12:53:04.611Z,31.30
2019-04-29T12:55:44.291Z,31.60
2019-04-29T12:58:05.505Z,31.90
2019-04-29T13:00:47.246Z,32.50
2019-04-29T13:03:26.240Z,32.40
2019-04-29T13:06:05.020Z,31.60
2019-04-29T13:08:35.403Z,30.00
2019-04-29T13:11:05.897Z,30.00
2019-04-29T13:13:34.570Z,30.20
2019-04-29T13:16:10.732Z,31.00
2019-04-29T13:18:44.016Z,31.50
2019-04-29T13:21:12.773Z,32.20
2019-04-29T13:23:53.756Z,34.10
2019-04-29T13:26:11.770Z,32.80
2019-04-29T13:28:59.170Z,35.00
2019-04-29T13:31:10.796Z,34.70
2019-04-29T13:33:39.612Z,35.40
2019-04-29T13:36:08.532Z,35.40
2019-04-29T13:38:37.281Z,35.70
2019-04-29T13:41:13.450Z,36.30
2019-04-29T13:43:36.476Z,36.30
2019-04-29T13:46:09.850Z,35.80
2019-04-29T13:48:55.901Z,36.10
2019-04-29T13:51:35.660Z,35.90
2019-04-29T13:53:59.865Z,36.10
2019-04-29T13:56:39.361Z,35.30
2019-04-29T13:59:01.305Z,35.30
2019-04-29T14:01:58.283Z,35.30
2019-04-29T14:04:25.123Z,35.20
2019-04-29T14:06:56.932Z,34.80
2019-04-29T14:09:23.980Z,34.60
2019-04-29T14:12:01.786Z,35.00
2019-04-29T14:14:24.597Z,35.70
2019-04-29T14:17:11.521Z,36.20
2019-04-29T14:19:40.294Z,36.20
2019-04-29T14:21:54.252Z,36.60
2019-04-29T14:24:22.933Z,36.30
2019-04-29T14:26:51.684Z,35.20
2019-04-29T14:29:23.022Z,35.20
2019-04-29T14:31:54.115Z,35.70
2019-04-29T14:34:24.354Z,36.00
2019-04-29T14:36:57.461Z,36.20
2019-04-29T14:39:36.811Z,36.10
2019-04-29T14:41:56.413Z,36.10
2019-04-29T14:44:38.551Z,36.00
2019-04-29T14:47:11.605Z,35.60
2019-04-29T14:49:41.981Z,36.30
2019-04-29T14:52:13.343Z,36.00
2019-04-29T14:54:41.912Z,35.70
2019-04-29T14:57:11.563Z,35.80
2019-04-29T14:59:40.493Z,35.60
2019-04-29T15:02:16.222Z,35.40
2019-04-29T15:04:43.020Z,35.20
2019-04-29T15:07:11.806Z,35.60
2019-04-29T15:09:46.804Z,35.70
2019-04-29T15:12:17.098Z,35.80
2019-04-29T15:14:54.740Z,36.10
2019-04-29T15:17:45.011Z,35.80
2019-04-29T15:20:17.462Z,35.50
2019-04-29T15:22:46.133Z,35.50
2019-04-29T15:25:16.705Z,36.10
2019-04-29T15:27:45.173Z,36.20
2019-04-29T15:30:14.083Z,35.80
2019-04-29T15:32:42.746Z,36.00
2019-04-29T15:35:11.550Z,36.10
2019-04-29T15:37:40.282Z,36.60
2019-04-29T15:40:09.031Z,36.60
2019-04-29T15:42:42.132Z,36.80
2019-04-29T15:45:08.229Z,36.80
2019-04-29T15:47:36.991Z,36.60
2019-04-29T15:50:18.217Z,36.80
2019-04-29T15:52:37.563Z,36.90
2019-04-29T15:55:06.506Z,37.40
2019-04-29T15:57:35.326Z,37.70
2019-04-29T16:00:20.618Z,37.90
2019-04-29T16:02:41.394Z,38.30
2019-04-29T16:05:10.368Z,39.00
2019-04-29T16:07:46.551Z,39.10
2019-04-29T16:10:28.431Z,40.20
2019-04-29T16:12:58.810Z,40.90
2019-04-29T16:15:27.476Z,41.40
2019-04-29T16:17:56.195Z,42.10
2019-04-29T16:20:24.935Z,42.50
2019-04-29T16:22:54.257Z,43.30
2019-04-29T16:25:23.958Z,43.80
2019-04-29T16:27:53.471Z,44.50
2019-04-29T16:30:26.221Z,45.30
2019-04-29T16:32:53.270Z,45.50
2019-04-29T16:35:23.761Z,45.90
2019-04-29T16:37:52.380Z,45.80
2019-04-29T16:40:21.170Z,46.30
2019-04-29T16:42:54.509Z,46.20
2019-04-29T16:45:24.874Z,46.40
2019-04-29T16:47:53.610Z,46.70
2019-04-29T16:50:22.340Z,46.90
2019-04-29T16:52:50.999Z,47.50
2019-04-29T16:55:19.735Z,47.80
2019-04-29T16:57:48.463Z,48.20
2019-04-29T17:00:19.139Z,48.20
2019-04-29T17:02:47.962Z,48.60
2019-04-29T17:05:16.698Z,48.80
2019-04-29T17:07:45.494Z,49.10
2019-04-29T17:10:17.088Z,49.50
2019-04-29T17:12:47.367Z,50.00
2019-04-29T17:15:24.687Z,50.20
2019-04-29T17:17:46.581Z,50.50
2019-04-29T17:20:15.416Z,52.20
2019-04-29T17:22:44.800Z,52.60
2019-04-29T17:25:14.177Z,53.90
2019-04-29T17:27:47.235Z,54.60
2019-04-29T17:30:32.937Z,55.30
2019-04-29T17:33:05.127Z,55.00
2019-04-29T17:35:35.144Z,55.90
2019-04-29T17:38:03.875Z,56.20
2019-04-29T17:40:34.272Z,57.10
2019-04-29T17:43:04.952Z,57.30
2019-04-29T17:45:37.875Z,57.10
2019-04-29T17:48:18.338Z,57.20
2019-04-29T17:50:48.879Z,58.00
2019-04-29T17:53:19.689Z,57.70
2019-04-29T17:55:50.483Z,58.80
2019-04-29T17:58:20.857Z,59.10
2019-04-29T18:00:59.577Z,59.50
2019-04-29T18:03:46.029Z,60.00
2019-04-29T18:06:17.237Z,60.70
2019-04-29T18:08:51.174Z,61.10
2019-04-29T18:11:19.902Z,60.40
2019-04-29T18:13:48.587Z,60.40
2019-04-29T18:16:25.937Z,61.30
2019-04-29T18:18:58.576Z,61.90
2019-04-29T18:21:47.238Z,62.30
2019-04-29T18:24:15.986Z,63.00
2019-04-29T18:26:49.939Z,63.70
2019-04-29T18:29:19.874Z,64.00
2019-04-29T18:31:50.792Z,64.30
2019-04-29T18:34:19.678Z,64.80
2019-04-29T18:36:48.415Z,65.10
2019-04-29T18:39:25.078Z,65.20
2019-04-29T18:41:52.087Z,65.80
2019-04-29T18:44:20.747Z,65.80
2019-04-29T18:46:53.589Z,65.90
2019-04-29T18:49:19.801Z,66.60
2019-04-29T18:51:48.540Z,67.20
2019-04-29T18:54:17.270Z,67.40
2019-04-29T18:56:46.005Z,67.30
2019-04-29T18:59:18.215Z,68.00
2019-04-29T19:01:45.139Z,68.40
2019-04-29T19:04:17.380Z,68.00
2019-04-29T19:06:45.950Z,67.90
2019-04-29T19:09:19.976Z,68.80
2019-04-29T19:11:46.317Z,67.70
2019-04-29T19:14:15.195Z,67.60
2019-04-29T19:16:45.801Z,67.80
2019-04-29T19:19:15.399Z,67.60
2019-04-29T19:21:45.524Z,67.40
2019-04-29T19:24:16.189Z,67.00
2019-04-29T19:26:45.011Z,66.40
2019-04-29T19:29:15.505Z,65.70
2019-04-29T19:31:48.603Z,65.30
2019-04-29T19:34:18.507Z,65.50
2019-04-29T19:36:45.234Z,64.20
2019-04-29T19:39:17.101Z,64.00
2019-04-29T19:41:49.376Z,63.40
2019-04-29T19:44:15.513Z,63.40
2019-04-29T19:46:45.360Z,60.50
2019-04-29T19:49:15.754Z,60.70
2019-04-29T19:51:47.326Z,59.10
2019-04-29T19:54:16.991Z,57.90
2019-04-29T19:56:45.331Z,57.20
2019-04-29T19:59:17.165Z,56.10
2019-04-29T20:01:48.944Z,55.30
2019-04-29T20:04:21.802Z,55.50
2019-04-29T20:06:48.222Z,55.10
2019-04-29T20:09:22.751Z,54.20
2019-04-29T20:11:49.516Z,54.30
2019-04-29T20:14:25.494Z,52.80
2019-04-29T20:17:12.922Z,52.50
2019-04-29T20:19:50.742Z,51.90
2019-04-29T20:22:17.139Z,49.50
2019-04-29T20:24:49.625Z,48.80
2019-04-29T20:27:16.423Z,48.20
2019-04-29T20:29:45.809Z,46.60
2019-04-29T20:32:16.514Z,45.80
2019-04-29T20:34:46.111Z,44.90
2019-04-29T20:37:18.134Z,44.30
2019-04-29T20:39:45.728Z,43.80
2019-04-29T20:42:15.871Z,43.50
2019-04-29T20:44:48.663Z,42.90
2019-04-29T20:47:22.159Z,42.20
2019-04-29T20:49:45.507Z,42.00
2019-04-29T20:52:25.940Z,41.80
2019-04-29T20:55:00.793Z,41.30
2019-04-29T20:57:27.439Z,40.90
2019-04-29T20:59:55.512Z,40.90
2019-04-29T21:02:31.460Z,40.60
2019-04-29T21:04:55.862Z,40.80
2019-04-29T21:07:25.733Z,40.80
2019-04-29T21:09:55.897Z,40.30
2019-04-29T21:12:42.293Z,40.50
2019-04-29T21:15:27.406Z,39.90
2019-04-29T21:17:58.535Z,40.00
2019-04-29T21:20:26.484Z,40.10
2019-04-29T21:22:59.281Z,39.80
2019-04-29T21:25:29.379Z,40.20
2019-04-29T21:27:58.178Z,40.10
2019-04-29T21:30:35.007Z,40.20
2019-04-29T21:32:58.609Z,40.20
2019-04-29T21:35:28.942Z,40.60
2019-04-29T21:38:17.903Z,40.50
2019-04-29T21:40:53.202Z,40.50
2019-04-29T21:43:32.365Z,40.40
2019-04-29T21:46:01.103Z,40.20
2019-04-29T21:48:33.442Z,40.50
2019-04-29T21:51:00.138Z,40.40
2019-04-29T21:53:31.569Z,40.10
2019-04-29T21:55:59.688Z,40.50
2019-04-29T21:58:33.040Z,40.30
2019-04-29T22:01:00.493Z,40.50
2019-04-29T22:03:29.287Z,40.60
2019-04-29T22:06:00.234Z,40.60
2019-04-29T22:08:30.004Z,40.70
2019-04-29T22:11:04.814Z,40.40
2019-04-29T22:13:30.650Z,40.30
2019-04-29T22:15:59.902Z,40.90
2019-04-29T22:18:28.646Z,40.70
2019-04-29T22:20:57.375Z,41.10
2019-04-29T22:23:26.105Z,40.80
2019-04-29T22:25:56.672Z,41.10
2019-04-29T22:28:25.203Z,40.80
2019-04-29T22:30:54.953Z,41.50
2019-04-29T22:33:25.275Z,41.40
2019-04-29T22:35:55.454Z,41.70
2019-04-29T22:38:24.959Z,41.60
2019-04-29T22:40:55.179Z,41.70
2019-04-29T22:43:36.009Z,42.50
2019-04-29T22:46:09.277Z,42.10
2019-04-29T22:48:35.192Z,42.10
2019-04-29T22:51:05.772Z,41.80
2019-04-29T22:53:35.858Z,42.10
2019-04-29T22:56:08.871Z,42.00
2019-04-29T22:58:35.187Z,42.20
2019-04-29T23:01:06.850Z,41.90
2019-04-29T23:03:37.512Z,42.20
2019-04-29T23:06:08.291Z,42.40
2019-04-29T23:08:38.040Z,42.30
2019-04-29T23:11:05.618Z,42.60
2019-04-29T23:13:35.489Z,42.60
2019-04-29T23:16:04.794Z,42.90
2019-04-29T23:18:41.865Z,43.00
2019-04-29T23:21:17.609Z,43.20
2019-04-29T23:23:47.984Z,43.20
2019-04-29T23:26:16.916Z,43.20
2019-04-29T23:28:45.842Z,43.40
2019-04-29T23:31:14.573Z,43.40
2019-04-29T23:33:43.231Z,43.70
2019-04-29T23:36:14.209Z,43.90
2019-04-29T23:38:42.765Z,44.00
2019-04-29T23:41:12.781Z,44.10
2019-04-29T23:43:41.505Z,44.20
2019-04-29T23:46:10.225Z,44.20
2019-04-29T23:48:39.740Z,44.50
2019-04-29T23:51:08.508Z,44.80
2019-04-29T23:53:37.231Z,45.00
2019-04-29T23:56:09.681Z,45.10
2019-04-29T23:58:38.698Z,45.30
